Profiler II — CZ2496 — position and weather

sailwx.info

Track history (hours):
 
Tides and Currents Weather Stations Pressure Air Temp Water Temp Dewpoint Dewpoint Depression Visibility Wind Speed Wind Dir Waves Ship Positions

Profiler II

Last reported at 2015-Mar-13 20:25 UTC. Time now 2015-Mar-27 03:39 UTC.
Position N 49°12' W 122°55'.
Warning: this ship's position is 13 days out of date.

Type: Other ship. MMSI: 316002054.

Date/timePositionNaut miles runAvg speedWind from/ knotsBaromVisibWave heightAir tempDewpointWater temp
2015-Mar-13 20:25N 49°12' W 122°55'6 6.9
2015-Mar-13 19:33N 49°08' W 123°03'6 5.7
2015-Mar-13 18:33N 49°07' W 123°11'1 0.6
2015-Mar-13 17:33N 49°07' W 123°11'0 0.4
2015-Mar-13 16:33N 49°07' W 123°10'1 0.7
2015-Mar-13 15:34N 49°07' W 123°11'0 0.0
2015-Mar-11 21:33N 49°07' W 123°11'0 0.3
2015-Mar-11 20:33N 49°07' W 123°11'0 0.2
2015-Mar-11 19:33N 49°07' W 123°11'1 1.4
2015-Mar-11 18:33N 49°08' W 123°13'0 0.2
2015-Mar-11 17:33N 49°08' W 123°13'0 0.1
2015-Mar-11 16:33N 49°08' W 123°13'0 0.0
2015-Mar-10 21:33N 49°07' W 123°12'0 0.2
2015-Mar-10 20:34N 49°07' W 123°13'3 2.9
2015-Mar-10 19:33N 49°07' W 123°17'4 3.8
2015-Mar-10 18:34N 49°07' W 123°11'0 0.1
2015-Mar-10 17:33N 49°07' W 123°11'0 0.0
2015-Mar-10 16:34N 49°07' W 123°11'  
2015-Mar-07 18:18N 49°07' W 123°11'0 0.0
2015-Mar-07 17:33N 49°07' W 123°11'0 0.0
2015-Mar-07 16:32N 49°07' W 123°11'0 0.0
2015-Mar-07 15:33N 49°07' W 123°11'0 0.0
2015-Mar-07 14:33N 49°07' W 123°11'0 0.0
2015-Mar-07 13:33N 49°07' W 123°11'0 0.0
2015-Mar-07 12:33N 49°07' W 123°11'0 0.0
2015-Mar-07 11:33N 49°07' W 123°11'0 0.0
2015-Mar-07 10:33N 49°07' W 123°11'0 0.0
2015-Mar-07 09:33N 49°07' W 123°11'0 0.0
2015-Mar-07 08:33N 49°07' W 123°11'0 0.0
2015-Mar-07 07:33N 49°07' W 123°11'0 0.0
2015-Mar-07 06:33N 49°07' W 123°11'0 0.0
2015-Mar-07 05:33N 49°07' W 123°11'0 0.0
2015-Mar-07 04:33N 49°07' W 123°11'0 0.0
2015-Mar-07 03:33N 49°07' W 123°11'0 0.0
2015-Mar-07 02:33N 49°07' W 123°11'0 0.0
2015-Mar-07 01:33N 49°07' W 123°11'0 0.0
2015-Mar-07 00:31N 49°07' W 123°11'0 0.0
2015-Mar-06 23:33N 49°07' W 123°11'0 0.0
2015-Mar-06 22:33N 49°07' W 123°11'0 0.0
2015-Mar-06 21:33N 49°07' W 123°11'0 0.0
2015-Mar-06 20:32N 49°07' W 123°11'0 0.0
2015-Mar-06 19:33N 49°07' W 123°11'0 0.0
2015-Mar-06 18:33N 49°07' W 123°11'0 0.0
2015-Mar-06 17:33N 49°07' W 123°11'0 0.0
2015-Mar-06 16:33N 49°07' W 123°11'0 0.0
2015-Mar-06 15:33N 49°07' W 123°11'0 0.0
2015-Mar-06 14:33N 49°07' W 123°11'0 0.0
2015-Mar-06 13:33N 49°07' W 123°11'0 0.0
2015-Mar-06 12:33N 49°07' W 123°11'0 0.0
2015-Mar-06 11:33N 49°07' W 123°11'0 0.0
2015-Mar-06 10:33N 49°07' W 123°11'0 0.0
2015-Mar-06 09:33N 49°07' W 123°11'0 0.0
2015-Mar-06 08:33N 49°07' W 123°11'0 0.0
2015-Mar-06 07:33N 49°07' W 123°11'0 0.0
2015-Mar-06 06:33N 49°07' W 123°11'0 0.0
2015-Mar-06 05:33N 49°07' W 123°11'0 0.0
2015-Mar-06 04:34N 49°07' W 123°11'0 0.0
2015-Mar-06 03:33N 49°07' W 123°11'0 0.0
2015-Mar-06 02:33N 49°07' W 123°11'0 0.0
2015-Mar-06 01:33N 49°07' W 123°11'0 0.0
2015-Mar-06 00:33N 49°07' W 123°11'0 0.0
2015-Mar-05 23:33N 49°07' W 123°11'0 0.0
2015-Mar-05 22:33N 49°07' W 123°11'0 0.0
2015-Mar-05 21:33N 49°07' W 123°11'0 0.0
2015-Mar-05 20:33N 49°07' W 123°11'0 0.0
2015-Mar-05 19:33N 49°07' W 123°11'0 0.0
2015-Mar-05 18:33N 49°07' W 123°11'0 0.0
2015-Mar-05 17:33N 49°07' W 123°11'0 0.0
2015-Mar-05 16:33N 49°07' W 123°11'0 0.0
2015-Mar-05 15:33N 49°07' W 123°11'0 0.0
2015-Mar-05 14:33N 49°07' W 123°11'0 0.0
2015-Mar-05 13:33N 49°07' W 123°11'0 0.0
2015-Mar-05 12:33N 49°07' W 123°11'0 0.0
2015-Mar-05 11:33N 49°07' W 123°11'0 0.0
2015-Mar-05 10:33N 49°07' W 123°11'0 0.0
2015-Mar-05 09:32N 49°07' W 123°11'0 0.0
2015-Mar-05 08:32N 49°07' W 123°11'0 0.0
2015-Mar-05 07:32N 49°07' W 123°11'0 0.0
2015-Mar-05 06:32N 49°07' W 123°11'0 0.0
2015-Mar-05 05:33N 49°07' W 123°11'0 0.0
2015-Mar-05 04:33N 49°07' W 123°11'0 0.0
2015-Mar-05 03:33N 49°07' W 123°11'0 0.0
2015-Mar-05 02:33N 49°07' W 123°11'0 0.0
2015-Mar-05 01:33N 49°07' W 123°11'0 0.0
2015-Mar-05 00:33N 49°07' W 123°11'0 0.0
2015-Mar-04 23:33N 49°07' W 123°11'0 0.4
2015-Mar-04 22:33N 49°07' W 123°12'3 2.8
2015-Mar-04 21:33N 49°07' W 123°16'0 0.4
2015-Mar-04 20:33N 49°07' W 123°15'1 0.5
2015-Mar-04 19:33N 49°07' W 123°16'0 0.2
2015-Mar-04 18:33N 49°07' W 123°16'0 0.1
2015-Mar-04 17:33N 49°07' W 123°16'1 0.0
2015-Mar-03 22:33N 49°07' W 123°17'1 1.0
2015-Mar-03 21:33N 49°06' W 123°19'0 0.1
2015-Mar-03 20:33N 49°06' W 123°18'  
Track history (hours):
 
Tides and Currents Weather Stations Pressure Air Temp Water Temp Dewpoint Dewpoint Depression Visibility Wind Speed Wind Dir Waves Ship Positions

Profiler II

Last reported at 2015-Mar-13 20:25 UTC. Time now 2015-Mar-27 03:39 UTC.
Position N 49°12' W 122°55'.
Warning: this ship's position is 13 days out of date.

Type: Other ship. MMSI: 316002054.

Date/timePositionNaut miles runAvg speedWind from/ knotsBaromVisibWave heightAir tempDewpointWater temp
2015-Mar-13 20:25N 49°12' W 122°55'6 6.9
2015-Mar-13 19:33N 49°08' W 123°03'6 5.7
2015-Mar-13 18:33N 49°07' W 123°11'1 0.6
2015-Mar-13 17:33N 49°07' W 123°11'0 0.4
2015-Mar-13 16:33N 49°07' W 123°10'1 0.7
2015-Mar-13 15:34N 49°07' W 123°11'0 0.0
2015-Mar-11 21:33N 49°07' W 123°11'0 0.3
2015-Mar-11 20:33N 49°07' W 123°11'0 0.2
2015-Mar-11 19:33N 49°07' W 123°11'1 1.4
2015-Mar-11 18:33N 49°08' W 123°13'0 0.2
2015-Mar-11 17:33N 49°08' W 123°13'0 0.1
2015-Mar-11 16:33N 49°08' W 123°13'0 0.0
2015-Mar-10 21:33N 49°07' W 123°12'0 0.2
2015-Mar-10 20:34N 49°07' W 123°13'3 2.9
2015-Mar-10 19:33N 49°07' W 123°17'4 3.8
2015-Mar-10 18:34N 49°07' W 123°11'0 0.1
2015-Mar-10 17:33N 49°07' W 123°11'0 0.0
2015-Mar-10 16:34N 49°07' W 123°11'  
2015-Mar-07 18:18N 49°07' W 123°11'0 0.0
2015-Mar-07 17:33N 49°07' W 123°11'0 0.0
2015-Mar-07 16:32N 49°07' W 123°11'0 0.0
2015-Mar-07 15:33N 49°07' W 123°11'0 0.0
2015-Mar-07 14:33N 49°07' W 123°11'0 0.0
2015-Mar-07 13:33N 49°07' W 123°11'0 0.0
2015-Mar-07 12:33N 49°07' W 123°11'0 0.0
2015-Mar-07 11:33N 49°07' W 123°11'0 0.0
2015-Mar-07 10:33N 49°07' W 123°11'0 0.0
2015-Mar-07 09:33N 49°07' W 123°11'0 0.0
2015-Mar-07 08:33N 49°07' W 123°11'0 0.0
2015-Mar-07 07:33N 49°07' W 123°11'0 0.0
2015-Mar-07 06:33N 49°07' W 123°11'0 0.0
2015-Mar-07 05:33N 49°07' W 123°11'0 0.0
2015-Mar-07 04:33N 49°07' W 123°11'0 0.0
2015-Mar-07 03:33N 49°07' W 123°11'0 0.0
2015-Mar-07 02:33N 49°07' W 123°11'0 0.0
2015-Mar-07 01:33N 49°07' W 123°11'0 0.0
2015-Mar-07 00:31N 49°07' W 123°11'0 0.0
2015-Mar-06 23:33N 49°07' W 123°11'0 0.0
2015-Mar-06 22:33N 49°07' W 123°11'0 0.0
2015-Mar-06 21:33N 49°07' W 123°11'0 0.0
2015-Mar-06 20:32N 49°07' W 123°11'0 0.0
2015-Mar-06 19:33N 49°07' W 123°11'0 0.0
2015-Mar-06 18:33N 49°07' W 123°11'0 0.0
2015-Mar-06 17:33N 49°07' W 123°11'0 0.0
2015-Mar-06 16:33N 49°07' W 123°11'0 0.0
2015-Mar-06 15:33N 49°07' W 123°11'0 0.0
2015-Mar-06 14:33N 49°07' W 123°11'0 0.0
2015-Mar-06 13:33N 49°07' W 123°11'0 0.0
2015-Mar-06 12:33N 49°07' W 123°11'0 0.0
2015-Mar-06 11:33N 49°07' W 123°11'0 0.0
2015-Mar-06 10:33N 49°07' W 123°11'0 0.0
2015-Mar-06 09:33N 49°07' W 123°11'0 0.0
2015-Mar-06 08:33N 49°07' W 123°11'0 0.0
2015-Mar-06 07:33N 49°07' W 123°11'0 0.0
2015-Mar-06 06:33N 49°07' W 123°11'0 0.0
2015-Mar-06 05:33N 49°07' W 123°11'0 0.0
2015-Mar-06 04:34N 49°07' W 123°11'0 0.0
2015-Mar-06 03:33N 49°07' W 123°11'0 0.0
2015-Mar-06 02:33N 49°07' W 123°11'0 0.0
2015-Mar-06 01:33N 49°07' W 123°11'0 0.0
2015-Mar-06 00:33N 49°07' W 123°11'0 0.0
2015-Mar-05 23:33N 49°07' W 123°11'0 0.0
2015-Mar-05 22:33N 49°07' W 123°11'0 0.0
2015-Mar-05 21:33N 49°07' W 123°11'0 0.0
2015-Mar-05 20:33N 49°07' W 123°11'0 0.0
2015-Mar-05 19:33N 49°07' W 123°11'0 0.0
2015-Mar-05 18:33N 49°07' W 123°11'0 0.0
2015-Mar-05 17:33N 49°07' W 123°11'0 0.0
2015-Mar-05 16:33N 49°07' W 123°11'0 0.0
2015-Mar-05 15:33N 49°07' W 123°11'0 0.0
2015-Mar-05 14:33N 49°07' W 123°11'0 0.0
2015-Mar-05 13:33N 49°07' W 123°11'0 0.0
2015-Mar-05 12:33N 49°07' W 123°11'0 0.0
2015-Mar-05 11:33N 49°07' W 123°11'0 0.0
2015-Mar-05 10:33N 49°07' W 123°11'0 0.0
2015-Mar-05 09:32N 49°07' W 123°11'0 0.0
2015-Mar-05 08:32N 49°07' W 123°11'0 0.0
2015-Mar-05 07:32N 49°07' W 123°11'0 0.0
2015-Mar-05 06:32N 49°07' W 123°11'0 0.0
2015-Mar-05 05:33N 49°07' W 123°11'0 0.0
2015-Mar-05 04:33N 49°07' W 123°11'0 0.0
2015-Mar-05 03:33N 49°07' W 123°11'0 0.0
2015-Mar-05 02:33N 49°07' W 123°11'0 0.0
2015-Mar-05 01:33N 49°07' W 123°11'0 0.0
2015-Mar-05 00:33N 49°07' W 123°11'0 0.0
2015-Mar-04 23:33N 49°07' W 123°11'0 0.4
2015-Mar-04 22:33N 49°07' W 123°12'3 2.8
2015-Mar-04 21:33N 49°07' W 123°16'0 0.4
2015-Mar-04 20:33N 49°07' W 123°15'1 0.5
2015-Mar-04 19:33N 49°07' W 123°16'0 0.2
2015-Mar-04 18:33N 49°07' W 123°16'0 0.1
2015-Mar-04 17:33N 49°07' W 123°16'1 0.0
2015-Mar-03 22:33N 49°07' W 123°17'1 1.0
2015-Mar-03 21:33N 49°06' W 123°19'0 0.1
2015-Mar-03 20:33N 49°06' W 123°18'  

Dump ship's entire track history